Time;durP1;ratioP1;P1;durP2;ratioP2;P2;SDS_P1;SDS_P2;PMS_P1;PMS_P2;Temp;Humidity;BMP_temperature;BMP_pressure;BME280_temperature;BME280_humidity;BME280_pressure;Samples;Min_cycle;Max_cycle;Signal;HPM_P1;HPM_P2
2022/12/02 00:01:33;;;;;;;34.45;14.77;;;;;;;;;;4976987;28;20034;-83
2022/12/02 00:03:58;;;;;;;32.17;15.10;;;;;;;;;;4978871;28;20023;-81
2022/12/02 00:06:32;;;;;;;38.85;15.27;;;;;;;;;;4977527;28;20518;-84
2022/12/02 00:09:26;;;;;;;41.80;16.73;;;;;;;;;;4979632;28;20093;-83
2022/12/02 00:11:52;;;;;;;33.58;15.77;;;;;;;;;;4979702;28;20031;-84
2022/12/02 00:14:22;;;;;;;37.60;16.58;;;;;;;;;;4978978;28;20027;-82
2022/12/02 00:16:48;;;;;;;34.97;15.77;;;;;;;;;;4978355;28;20096;-83
2022/12/02 00:19:13;;;;;;;34.92;15.70;;;;;;;;;;4977607;28;20022;-82
2022/12/02 00:21:39;;;;;;;38.78;16.83;;;;;;;;;;4977884;28;20022;-83
2022/12/02 00:24:04;;;;;;;42.53;16.23;;;;;;;;;;4977953;28;20027;-82
2022/12/02 00:26:29;;;;;;;38.58;15.60;;;;;;;;;;4977554;28;20034;-82
2022/12/02 00:28:55;;;;;;;37.90;16.63;;;;;;;;;;4978931;28;20110;-83
2022/12/02 00:31:20;;;;;;;34.22;15.80;;;;;;;;;;4978612;28;20027;-83
2022/12/02 00:33:45;;;;;;;34.72;15.68;;;;;;;;;;4977235;28;20484;-82
2022/12/02 00:36:10;;;;;;;41.20;15.27;;;;;;;;;;4977053;28;20022;-83
2022/12/02 00:38:36;;;;;;;42.42;15.70;;;;;;;;;;4978121;28;20083;-84
2022/12/02 00:41:01;;;;;;;38.30;15.98;;;;;;;;;;4976714;28;20030;-83
2022/12/02 00:48:54;;;;;;;40.53;15.32;;;;;;;;;;4978259;28;20038;-83
2022/12/02 00:51:20;;;;;;;33.15;14.85;;;;;;;;;;4977701;28;20392;-82
2022/12/02 00:53:45;;;;;;;32.25;14.15;;;;;;;;;;4977622;28;20023;-81
2022/12/02 00:56:10;;;;;;;32.88;14.45;;;;;;;;;;4977765;28;20034;-83
2022/12/02 00:58:35;;;;;;;34.50;15.48;;;;;;;;;;4981244;28;20034;-82
2022/12/02 01:01:01;;;;;;;32.58;13.95;;;;;;;;;;4980954;28;20109;-83
2022/12/02 01:03:26;;;;;;;38.17;15.63;;;;;;;;;;4979041;28;20038;-83
2022/12/02 01:05:51;;;;;;;37.33;16.17;;;;;;;;;;4980311;28;20369;-82
2022/12/02 01:08:16;;;;;;;38.05;15.05;;;;;;;;;;4980059;28;20066;-83
2022/12/02 01:10:42;;;;;;;34.47;14.93;;;;;;;;;;4978480;28;20026;-82
2022/12/02 01:13:07;;;;;;;35.97;14.60;;;;;;;;;;4980079;28;20027;-82
2022/12/02 01:15:33;;;;;;;36.78;15.02;;;;;;;;;;4979512;28;20022;-83
2022/12/02 01:17:59;;;;;;;34.80;14.98;;;;;;;;;;4980137;28;20026;-82
2022/12/02 01:20:24;;;;;;;35.72;15.60;;;;;;;;;;4980314;28;20057;-82
2022/12/02 01:22:49;;;;;;;36.78;15.70;;;;;;;;;;4978240;28;20035;-83
2022/12/02 01:25:15;;;;;;;36.45;15.20;;;;;;;;;;4979186;28;20208;-82
2022/12/02 01:27:40;;;;;;;36.42;15.57;;;;;;;;;;4979705;28;20038;-83
2022/12/02 01:30:06;;;;;;;33.78;14.73;;;;;;;;;;4980387;28;20476;-83
2022/12/02 01:32:31;;;;;;;33.63;14.60;;;;;;;;;;4980618;28;20034;-83
2022/12/02 01:34:56;;;;;;;33.22;14.52;;;;;;;;;;4980148;28;20023;-82
2022/12/02 01:37:22;;;;;;;40.70;15.13;;;;;;;;;;4979918;28;20490;-82
2022/12/02 01:39:47;;;;;;;39.50;15.85;;;;;;;;;;4980010;28;20027;-83
2022/12/02 01:42:12;;;;;;;34.30;15.45;;;;;;;;;;4979349;28;20088;-82
2022/12/02 01:44:38;;;;;;;37.40;14.43;;;;;;;;;;4980083;28;20030;-82
2022/12/02 01:47:03;;;;;;;37.10;15.50;;;;;;;;;;4979981;28;20030;-82
2022/12/02 01:49:29;;;;;;;36.72;15.25;;;;;;;;;;4979317;28;20037;-81
2022/12/02 01:51:54;;;;;;;28.77;11.35;;;;;;;;;;4981477;28;20022;-82
2022/12/02 01:54:20;;;;;;;30.88;14.52;;;;;;;;;;4981375;28;20023;-83
2022/12/02 01:56:45;;;;;;;37.05;15.88;;;;;;;;;;4981980;28;20109;-83
2022/12/02 01:59:13;;;;;;;32.15;14.07;;;;;;;;;;4981344;28;20018;-83
2022/12/02 02:01:39;;;;;;;30.83;12.95;;;;;;;;;;4980292;28;20551;-83
2022/12/02 02:04:05;;;;;;;32.50;13.73;;;;;;;;;;4981356;28;20062;-82
2022/12/02 02:06:35;;;;;;;35.35;14.45;;;;;;;;;;4979771;28;20023;-84
2022/12/02 02:09:00;;;;;;;28.92;13.52;;;;;;;;;;4980778;28;20030;-83
2022/12/02 02:11:26;;;;;;;28.83;13.32;;;;;;;;;;4980375;28;20038;-83
2022/12/02 02:13:52;;;;;;;29.20;11.93;;;;;;;;;;4980454;28;20022;-84
2022/12/02 02:16:17;;;;;;;29.15;13.43;;;;;;;;;;4980314;28;20023;-83
2022/12/02 02:18:43;;;;;;;29.85;12.77;;;;;;;;;;4980064;28;20030;-82
2022/12/02 02:21:15;;;;;;;36.50;14.30;;;;;;;;;;4980437;28;20041;-83
2022/12/02 02:23:40;;;;;;;29.30;12.55;;;;;;;;;;4979924;28;20026;-83
2022/12/02 02:26:05;;;;;;;29.13;12.80;;;;;;;;;;4980460;28;20081;-83
2022/12/02 02:28:32;;;;;;;26.92;12.65;;;;;;;;;;4978638;28;20081;-83
2022/12/02 02:30:58;;;;;;;30.98;12.68;;;;;;;;;;4980291;28;20464;-82
2022/12/02 02:33:28;;;;;;;26.90;11.85;;;;;;;;;;4978046;28;20027;-83
2022/12/02 02:35:53;;;;;;;18.70;9.43;;;;;;;;;;4980320;28;20109;-83
2022/12/02 02:38:21;;;;;;;23.75;12.15;;;;;;;;;;4979270;28;20101;-83
2022/12/02 02:40:47;;;;;;;28.85;12.85;;;;;;;;;;4979070;28;20500;-84
2022/12/02 02:43:14;;;;;;;27.75;12.32;;;;;;;;;;4977369;28;20031;-83
2022/12/02 02:45:42;;;;;;;26.27;12.00;;;;;;;;;;4979118;28;20031;-83
2022/12/02 02:48:10;;;;;;;29.70;12.57;;;;;;;;;;4977060;28;20031;-83
2022/12/02 02:50:38;;;;;;;27.00;11.82;;;;;;;;;;4979189;28;20471;-83
2022/12/02 02:53:04;;;;;;;25.10;11.70;;;;;;;;;;4979342;28;20027;-83
2022/12/02 02:55:31;;;;;;;21.55;9.82;;;;;;;;;;4978509;28;20023;-83
2022/12/02 02:58:19;;;;;;;25.17;11.13;;;;;;;;;;4976473;28;20492;-84
2022/12/02 03:00:47;;;;;;;26.60;12.07;;;;;;;;;;4977301;28;20396;-83
2022/12/02 03:03:16;;;;;;;24.08;11.48;;;;;;;;;;4977357;28;20035;-82
2022/12/02 03:05:41;;;;;;;25.95;11.82;;;;;;;;;;4978053;28;20085;-82
2022/12/02 03:08:09;;;;;;;26.95;11.90;;;;;;;;;;4979543;28;20031;-83
2022/12/02 03:10:34;;;;;;;27.83;12.80;;;;;;;;;;4979272;28;20480;-83
2022/12/02 03:12:59;;;;;;;26.58;11.88;;;;;;;;;;4979587;28;20130;-82
2022/12/02 03:15:27;;;;;;;26.63;11.45;;;;;;;;;;4979296;28;20050;-82
2022/12/02 03:17:53;;;;;;;25.35;12.40;;;;;;;;;;4979434;28;20057;-83
2022/12/02 03:20:19;;;;;;;24.67;12.00;;;;;;;;;;4979678;28;20026;-82
2022/12/02 03:22:44;;;;;;;23.23;11.20;;;;;;;;;;4977883;28;20033;-83
2022/12/02 03:25:10;;;;;;;23.70;11.13;;;;;;;;;;4979555;28;20109;-83
2022/12/02 03:27:36;;;;;;;26.70;11.05;;;;;;;;;;4978147;28;20027;-81
2022/12/02 03:30:02;;;;;;;25.92;11.85;;;;;;;;;;4977892;28;20109;-83
2022/12/02 03:32:28;;;;;;;25.52;11.57;;;;;;;;;;4978978;28;20030;-82
2022/12/02 03:34:53;;;;;;;23.65;10.85;;;;;;;;;;4977636;28;20026;-82
2022/12/02 03:37:18;;;;;;;24.63;11.68;;;;;;;;;;4977565;28;20034;-83
2022/12/02 03:39:44;;;;;;;24.30;11.35;;;;;;;;;;4977257;28;20390;-83
2022/12/02 03:42:10;;;;;;;24.35;11.85;;;;;;;;;;4978464;28;20038;-82
2022/12/02 03:44:35;;;;;;;31.80;13.50;;;;;;;;;;4977290;28;20400;-83
2022/12/02 03:47:01;;;;;;;25.52;12.18;;;;;;;;;;4978903;28;20477;-81
2022/12/02 03:49:27;;;;;;;26.73;12.50;;;;;;;;;;4978254;28;20034;-81
2022/12/02 03:51:53;;;;;;;22.52;11.05;;;;;;;;;;4978503;28;20027;-82
2022/12/02 03:54:18;;;;;;;26.45;12.82;;;;;;;;;;4978222;28;20030;-83
2022/12/02 03:56:43;;;;;;;24.90;12.18;;;;;;;;;;4978244;28;20042;-82
2022/12/02 03:59:16;;;;;;;25.13;12.15;;;;;;;;;;4976753;28;20026;-84
2022/12/02 04:01:42;;;;;;;26.17;13.07;;;;;;;;;;4976449;28;20030;-83
2022/12/02 04:04:07;;;;;;;26.60;12.50;;;;;;;;;;4977829;28;20038;-83
2022/12/02 04:06:32;;;;;;;24.70;12.70;;;;;;;;;;4977162;28;20058;-83
2022/12/02 04:08:57;;;;;;;28.13;13.18;;;;;;;;;;4977073;28;20022;-83
2022/12/02 04:11:23;;;;;;;24.42;12.52;;;;;;;;;;4975882;28;20110;-83
2022/12/02 04:13:48;;;;;;;25.25;12.82;;;;;;;;;;4977513;28;20069;-84
2022/12/02 04:16:13;;;;;;;20.63;9.88;;;;;;;;;;4975993;28;20117;-83
2022/12/02 04:18:38;;;;;;;23.95;11.57;;;;;;;;;;4976637;28;20030;-83
2022/12/02 04:21:04;;;;;;;27.02;12.40;;;;;;;;;;4976981;28;20033;-83
2022/12/02 04:23:29;;;;;;;26.55;12.68;;;;;;;;;;4976940;28;20054;-83
2022/12/02 04:25:55;;;;;;;24.23;11.10;;;;;;;;;;4976165;28;20027;-83
2022/12/02 04:28:20;;;;;;;18.65;8.50;;;;;;;;;;4976802;28;20022;-83
2022/12/02 04:30:45;;;;;;;16.02;6.35;;;;;;;;;;4975522;28;20023;-84
2022/12/02 04:33:10;;;;;;;22.38;11.63;;;;;;;;;;4981376;28;20027;-83
2022/12/02 04:35:36;;;;;;;25.13;11.40;;;;;;;;;;4981647;28;20034;-83
2022/12/02 04:38:01;;;;;;;18.25;9.00;;;;;;;;;;4979867;28;20097;-83
2022/12/02 04:40:26;;;;;;;25.75;11.80;;;;;;;;;;4981141;28;20031;-81
2022/12/02 04:42:52;;;;;;;25.35;12.63;;;;;;;;;;4981565;28;20066;-82
2022/12/02 04:45:17;;;;;;;23.25;10.10;;;;;;;;;;4980104;28;20139;-84
2022/12/02 04:47:42;;;;;;;25.10;12.63;;;;;;;;;;4981050;28;20030;-82
2022/12/02 04:50:08;;;;;;;23.92;11.88;;;;;;;;;;4981385;28;20042;-81
2022/12/02 04:52:33;;;;;;;25.75;11.85;;;;;;;;;;4979506;28;20392;-83
2022/12/02 04:54:59;;;;;;;23.77;12.13;;;;;;;;;;4980037;28;20034;-83
2022/12/02 04:57:24;;;;;;;22.05;11.45;;;;;;;;;;4980472;28;20031;-83
2022/12/02 04:59:49;;;;;;;20.60;10.25;;;;;;;;;;4979926;28;20026;-83
2022/12/02 05:02:22;;;;;;;23.88;11.75;;;;;;;;;;4981500;28;20085;-83
2022/12/02 05:04:47;;;;;;;18.77;9.32;;;;;;;;;;4981618;28;20019;-83
2022/12/02 05:07:13;;;;;;;25.13;11.70;;;;;;;;;;4980036;28;20038;-83
2022/12/02 05:09:38;;;;;;;24.48;10.85;;;;;;;;;;4981255;28;20034;-82
2022/12/02 05:12:03;;;;;;;21.42;10.52;;;;;;;;;;4981460;28;20369;-84
2022/12/02 05:14:29;;;;;;;20.58;9.65;;;;;;;;;;4981613;28;20027;-84
2022/12/02 05:16:54;;;;;;;20.67;10.05;;;;;;;;;;4981219;28;20369;-83
2022/12/02 05:19:19;;;;;;;24.00;10.75;;;;;;;;;;4979919;28;20031;-84
2022/12/02 05:21:44;;;;;;;22.88;9.00;;;;;;;;;;4980566;28;20027;-82
2022/12/02 05:24:11;;;;;;;12.98;5.60;;;;;;;;;;4980105;28;20121;-83
2022/12/02 05:26:36;;;;;;;18.58;7.95;;;;;;;;;;4981694;28;20027;-82
2022/12/02 05:29:05;;;;;;;21.00;10.00;;;;;;;;;;4982066;28;20052;-84
2022/12/02 05:31:31;;;;;;;23.83;11.23;;;;;;;;;;4981209;28;20444;-84
2022/12/02 05:33:56;;;;;;;21.40;10.98;;;;;;;;;;4979471;28;20023;-82
2022/12/02 05:36:21;;;;;;;20.52;9.82;;;;;;;;;;4980253;28;20022;-83
2022/12/02 05:38:46;;;;;;;20.23;9.43;;;;;;;;;;4980830;28;20034;-83
2022/12/02 05:41:12;;;;;;;14.88;7.18;;;;;;;;;;4980638;28;20423;-83
2022/12/02 05:43:40;;;;;;;15.25;7.90;;;;;;;;;;4979848;28;20034;-83
2022/12/02 05:46:14;;;;;;;21.35;10.60;;;;;;;;;;4980361;28;20023;-83
2022/12/02 05:48:39;;;;;;;20.25;9.57;;;;;;;;;;4979880;28;20030;-83
2022/12/02 05:51:10;;;;;;;19.90;9.18;;;;;;;;;;4980397;28;20069;-83
2022/12/02 05:53:38;;;;;;;14.43;6.72;;;;;;;;;;4980966;28;20034;-83
2022/12/02 05:56:09;;;;;;;15.65;7.72;;;;;;;;;;4980823;28;20018;-83
2022/12/02 05:58:34;;;;;;;22.48;10.48;;;;;;;;;;4979286;28;20050;-84
2022/12/02 06:00:59;;;;;;;11.13;5.80;;;;;;;;;;4980167;28;20484;-83
2022/12/02 06:03:25;;;;;;;20.08;8.75;;;;;;;;;;4979764;28;20030;-82
2022/12/02 06:05:52;;;;;;;10.43;5.72;;;;;;;;;;4978712;28;20026;-82
2022/12/02 06:08:22;;;;;;;16.65;9.02;;;;;;;;;;4978921;28;20496;-83
2022/12/02 06:10:50;;;;;;;17.17;8.25;;;;;;;;;;4979142;28;20117;-86
2022/12/02 06:13:20;;;;;;;23.42;11.32;;;;;;;;;;4983787;28;20109;-83
2022/12/02 06:15:46;;;;;;;18.60;8.13;;;;;;;;;;4981353;28;20037;-82
2022/12/02 06:18:14;;;;;;;23.80;10.77;;;;;;;;;;4979929;28;20396;-81
2022/12/02 06:20:40;;;;;;;27.08;11.48;;;;;;;;;;4979776;28;20444;-82
2022/12/02 06:23:13;;;;;;;23.10;11.38;;;;;;;;;;4979636;28;20033;-82
2022/12/02 06:25:38;;;;;;;25.43;11.33;;;;;;;;;;4980792;28;20027;-81
2022/12/02 06:28:23;;;;;;;17.58;8.52;;;;;;;;;;4979682;28;20038;-84
2022/12/02 06:30:49;;;;;;;20.70;10.45;;;;;;;;;;4979639;28;20048;-83
2022/12/02 06:33:29;;;;;;;16.08;8.02;;;;;;;;;;4978298;28;20495;-84
2022/12/02 06:35:55;;;;;;;14.95;7.53;;;;;;;;;;4978528;28;20027;-83
2022/12/02 06:38:34;;;;;;;20.05;10.13;;;;;;;;;;4978991;28;20057;-83
2022/12/02 06:41:09;;;;;;;19.55;8.85;;;;;;;;;;4978868;28;20030;-84
2022/12/02 06:43:35;;;;;;;21.00;8.63;;;;;;;;;;4979245;28;20035;-83
2022/12/02 06:46:00;;;;;;;22.38;10.32;;;;;;;;;;4979038;28;20035;-82
2022/12/02 06:48:35;;;;;;;18.05;9.68;;;;;;;;;;4978770;28;20433;-82
2022/12/02 06:51:18;;;;;;;15.77;7.95;;;;;;;;;;4977484;28;20037;-84
2022/12/02 06:53:44;;;;;;;17.63;8.57;;;;;;;;;;4978396;28;20030;-82
2022/12/02 06:56:18;;;;;;;23.63;10.20;;;;;;;;;;4977999;28;20023;-84
2022/12/02 06:58:46;;;;;;;17.10;7.85;;;;;;;;;;4980421;28;20365;-82
2022/12/02 07:01:23;;;;;;;18.27;9.48;;;;;;;;;;4980281;28;20081;-83
2022/12/02 07:04:02;;;;;;;15.05;7.80;;;;;;;;;;4978848;28;20034;-82
2022/12/02 07:06:29;;;;;;;9.13;4.93;;;;;;;;;;4977568;28;20022;-83
2022/12/02 07:09:00;;;;;;;15.27;7.55;;;;;;;;;;4979120;28;20388;-84
2022/12/02 07:11:48;;;;;;;20.92;9.68;;;;;;;;;;4980411;28;20034;-83
2022/12/02 07:14:20;;;;;;;15.05;6.90;;;;;;;;;;4978336;28;20346;-81
2022/12/02 07:16:48;;;;;;;18.95;9.30;;;;;;;;;;4978814;28;20023;-83
2022/12/02 07:19:20;;;;;;;19.58;8.90;;;;;;;;;;4978253;28;20065;-83
2022/12/02 07:21:46;;;;;;;20.27;8.95;;;;;;;;;;4979082;28;20022;-83
2022/12/02 07:24:17;;;;;;;19.38;10.35;;;;;;;;;;4980774;28;20026;-83
2022/12/02 07:26:44;;;;;;;19.13;8.27;;;;;;;;;;4981636;28;20058;-83
2022/12/02 07:29:13;;;;;;;17.58;8.50;;;;;;;;;;4979354;28;20162;-82
2022/12/02 07:31:43;;;;;;;13.35;6.53;;;;;;;;;;4978418;28;20034;-83
2022/12/02 07:34:11;;;;;;;18.95;10.20;;;;;;;;;;4977479;28;20019;-82
2022/12/02 07:36:36;;;;;;;19.88;9.43;;;;;;;;;;4977095;28;20054;-82
2022/12/02 07:39:02;;;;;;;14.18;8.23;;;;;;;;;;4977989;28;20077;-82
2022/12/02 07:41:27;;;;;;;17.65;9.20;;;;;;;;;;4979124;28;20030;-83
2022/12/02 07:43:53;;;;;;;21.80;11.13;;;;;;;;;;4977329;28;20365;-82
2022/12/02 07:46:19;;;;;;;22.35;10.98;;;;;;;;;;4979124;28;20046;-83
2022/12/02 07:48:44;;;;;;;21.40;10.48;;;;;;;;;;4979449;28;20041;-84
2022/12/02 07:51:09;;;;;;;15.15;6.00;;;;;;;;;;4980027;28;20498;-84
2022/12/02 07:53:35;;;;;;;15.88;8.38;;;;;;;;;;4978780;28;20018;-84
2022/12/02 07:56:00;;;;;;;21.55;8.95;;;;;;;;;;4978205;28;20177;-83
2022/12/02 07:58:26;;;;;;;21.38;10.27;;;;;;;;;;4978520;28;20118;-83
2022/12/02 08:00:51;;;;;;;20.95;10.02;;;;;;;;;;4978654;28;20111;-84
2022/12/02 08:03:17;;;;;;;24.70;10.65;;;;;;;;;;4979000;28;20034;-83
2022/12/02 08:05:42;;;;;;;13.70;6.55;;;;;;;;;;4978470;28;20019;-84
2022/12/02 08:08:07;;;;;;;14.85;7.13;;;;;;;;;;4978000;28;20041;-83
2022/12/02 08:10:32;;;;;;;27.83;12.13;;;;;;;;;;4976818;28;20026;-82
2022/12/02 08:12:58;;;;;;;10.73;5.93;;;;;;;;;;4978074;28;20130;-82
2022/12/02 08:15:23;;;;;;;23.20;8.48;;;;;;;;;;4978162;28;20034;-82
2022/12/02 08:17:48;;;;;;;19.00;9.77;;;;;;;;;;4977520;28;20431;-83
2022/12/02 08:20:13;;;;;;;27.20;12.00;;;;;;;;;;4976367;28;20026;-83
2022/12/02 08:22:39;;;;;;;27.63;12.73;;;;;;;;;;4976251;28;20102;-83
2022/12/02 08:25:04;;;;;;;21.65;9.70;;;;;;;;;;4978331;28;20027;-82
2022/12/02 08:27:30;;;;;;;23.10;9.50;;;;;;;;;;4978729;28;20056;-83
2022/12/02 08:29:55;;;;;;;26.48;11.38;;;;;;;;;;4977309;28;20030;-83
2022/12/02 08:32:21;;;;;;;23.50;11.00;;;;;;;;;;4976949;28;20026;-82
2022/12/02 08:34:46;;;;;;;22.25;8.80;;;;;;;;;;4977469;28;20042;-84
2022/12/02 08:37:12;;;;;;;23.75;10.98;;;;;;;;;;4977840;28;20081;-83
2022/12/02 08:39:38;;;;;;;25.33;11.25;;;;;;;;;;4977706;28;20104;-83
2022/12/02 08:42:04;;;;;;;22.55;10.65;;;;;;;;;;4978347;28;20019;-85
2022/12/02 08:44:30;;;;;;;18.27;8.30;;;;;;;;;;4979111;28;20034;-84
2022/12/02 08:46:55;;;;;;;25.92;11.98;;;;;;;;;;4978582;28;20476;-84
2022/12/02 08:49:21;;;;;;;25.48;11.10;;;;;;;;;;4979085;28;20026;-87
2022/12/02 08:51:46;;;;;;;25.85;11.43;;;;;;;;;;4978354;28;20038;-82
2022/12/02 08:54:14;;;;;;;22.00;11.32;;;;;;;;;;4977095;28;20027;-83
2022/12/02 08:56:40;;;;;;;17.10;8.60;;;;;;;;;;4977551;28;20023;-83
2022/12/02 08:59:05;;;;;;;28.92;11.68;;;;;;;;;;4977391;28;20034;-85
2022/12/02 09:01:30;;;;;;;24.13;10.88;;;;;;;;;;4978734;28;20023;-84
2022/12/02 09:03:55;;;;;;;22.60;10.20;;;;;;;;;;4977168;28;20070;-83
2022/12/02 09:06:21;;;;;;;19.40;9.38;;;;;;;;;;4977085;28;20046;-82
2022/12/02 09:08:46;;;;;;;24.02;11.13;;;;;;;;;;4976738;28;20472;-83
2022/12/02 09:11:11;;;;;;;16.70;8.43;;;;;;;;;;4977989;28;20019;-83
2022/12/02 09:13:40;;;;;;;17.52;6.32;;;;;;;;;;4978042;28;20050;-84
2022/12/02 09:16:08;;;;;;;14.20;6.07;;;;;;;;;;4978432;28;20078;-84
2022/12/02 09:18:33;;;;;;;17.58;9.23;;;;;;;;;;4981863;28;20027;-84
2022/12/02 09:20:58;;;;;;;20.63;9.85;;;;;;;;;;4980786;28;20499;-83
2022/12/02 09:23:24;;;;;;;18.27;8.35;;;;;;;;;;4981832;28;20018;-83
2022/12/02 09:25:49;;;;;;;22.02;10.27;;;;;;;;;;4982146;28;20503;-83
2022/12/02 09:28:21;;;;;;;14.52;6.32;;;;;;;;;;4981410;28;20026;-84
2022/12/02 09:30:46;;;;;;;16.30;7.70;;;;;;;;;;4980966;28;20031;-81
2022/12/02 09:33:12;;;;;;;20.38;9.85;;;;;;;;;;4980891;28;20026;-82
2022/12/02 09:35:37;;;;;;;20.88;9.35;;;;;;;;;;4980145;28;20078;-83
2022/12/02 09:38:02;;;;;;;23.63;10.55;;;;;;;;;;4980869;28;20027;-83
2022/12/02 09:40:27;;;;;;;19.60;9.15;;;;;;;;;;4981552;28;20030;-82
2022/12/02 09:42:53;;;;;;;19.95;7.82;;;;;;;;;;4982170;28;20023;-82
2022/12/02 09:45:21;;;;;;;16.05;8.45;;;;;;;;;;4983236;28;20030;-83
2022/12/02 09:47:46;;;;;;;14.10;7.43;;;;;;;;;;4982828;28;20030;-81
2022/12/02 09:50:16;;;;;;;20.10;10.05;;;;;;;;;;4981480;28;20173;-82
2022/12/02 09:52:42;;;;;;;16.52;8.07;;;;;;;;;;4981257;28;20547;-82
2022/12/02 09:55:16;;;;;;;15.07;7.13;;;;;;;;;;4980996;28;20066;-82
2022/12/02 09:57:43;;;;;;;13.95;7.78;;;;;;;;;;4983602;28;20519;-82
2022/12/02 10:00:18;;;;;;;16.60;8.90;;;;;;;;;;4981412;28;20031;-82
2022/12/02 10:02:49;;;;;;;17.52;8.93;;;;;;;;;;4981344;28;20134;-83
2022/12/02 10:05:18;;;;;;;22.90;11.02;;;;;;;;;;4982526;28;20029;-82
2022/12/02 10:07:45;;;;;;;24.35;9.68;;;;;;;;;;4982385;28;20058;-82
2022/12/02 10:10:17;;;;;;;28.40;13.25;;;;;;;;;;4982014;28;20484;-81
2022/12/02 10:12:42;;;;;;;23.40;11.55;;;;;;;;;;4981260;28;20027;-82
2022/12/02 10:15:11;;;;;;;18.08;7.32;;;;;;;;;;4981354;28;20049;-81
2022/12/02 10:17:37;;;;;;;16.20;7.97;;;;;;;;;;4979529;28;20039;-82
2022/12/02 10:20:03;;;;;;;24.30;11.90;;;;;;;;;;4964597;28;20631;-83
2022/12/02 10:22:28;;;;;;;11.65;6.85;;;;;;;;;;4981080;28;20115;-83
2022/12/02 10:24:57;;;;;;;25.08;10.68;;;;;;;;;;4980020;28;20030;-81
2022/12/02 10:27:30;;;;;;;28.15;13.35;;;;;;;;;;4980663;28;20034;-81
2022/12/02 10:30:14;;;;;;;19.97;9.33;;;;;;;;;;4982166;28;20029;-80
2022/12/02 10:32:52;;;;;;;13.02;6.35;;;;;;;;;;4981667;28;20265;-82
2022/12/02 10:35:20;;;;;;;18.30;9.65;;;;;;;;;;4982153;28;20062;-83
2022/12/02 10:37:46;;;;;;;23.88;9.73;;;;;;;;;;4979988;28;20027;-82
2022/12/02 10:40:18;;;;;;;18.40;8.80;;;;;;;;;;4980577;28;20030;-82
2022/12/02 10:42:45;;;;;;;18.20;8.27;;;;;;;;;;4981609;28;20015;-82
2022/12/02 10:45:21;;;;;;;20.85;10.13;;;;;;;;;;4981408;28;20116;-82
2022/12/02 10:47:48;;;;;;;21.33;8.40;;;;;;;;;;4981162;28;20492;-81
2022/12/02 10:50:23;;;;;;;19.48;9.40;;;;;;;;;;4981438;28;20031;-83
2022/12/02 10:52:52;;;;;;;17.23;8.48;;;;;;;;;;4981273;28;20035;-83
2022/12/02 10:55:19;;;;;;;14.93;7.20;;;;;;;;;;4980235;28;20429;-82
2022/12/02 10:57:45;;;;;;;19.25;8.30;;;;;;;;;;4981319;28;20030;-81
2022/12/02 11:00:23;;;;;;;19.13;9.95;;;;;;;;;;4981512;28;20039;-84
2022/12/02 11:02:54;;;;;;;18.08;8.10;;;;;;;;;;4980082;28;20465;-81
2022/12/02 11:05:30;;;;;;;22.85;10.60;;;;;;;;;;4981499;28;20117;-82
2022/12/02 11:08:13;;;;;;;11.07;5.22;;;;;;;;;;4981550;28;20026;-83
2022/12/02 11:10:41;;;;;;;18.23;8.52;;;;;;;;;;4978926;28;20049;-82
2022/12/02 11:13:12;;;;;;;24.65;9.73;;;;;;;;;;4981399;28;20035;-81
2022/12/02 11:15:44;;;;;;;12.00;6.38;;;;;;;;;;4979219;28;20027;-83
2022/12/02 11:18:29;;;;;;;10.35;5.32;;;;;;;;;;4980435;28;20022;-81
2022/12/02 11:21:00;;;;;;;17.65;9.20;;;;;;;;;;4979220;28;20504;-83
2022/12/02 11:23:30;;;;;;;20.83;8.90;;;;;;;;;;4977948;28;20499;-82
2022/12/02 11:25:59;;;;;;;26.90;10.68;;;;;;;;;;4980630;28;20121;-82
2022/12/02 11:28:28;;;;;;;19.98;8.27;;;;;;;;;;4980248;28;20133;-82
2022/12/02 11:31:22;;;;;;;14.10;6.28;;;;;;;;;;4980159;28;20023;-82
2022/12/02 11:33:47;;;;;;;19.20;9.43;;;;;;;;;;4976686;28;20600;-82
2022/12/02 11:36:16;;;;;;;16.85;6.45;;;;;;;;;;4978522;28;20062;-81
2022/12/02 11:38:51;;;;;;;24.23;10.50;;;;;;;;;;4977837;28;20030;-82
2022/12/02 11:41:22;;;;;;;15.45;7.15;;;;;;;;;;4977812;28;20420;-82
2022/12/02 11:43:47;;;;;;;11.93;5.90;;;;;;;;;;4978793;28;20023;-83
2022/12/02 11:46:22;;;;;;;22.20;10.00;;;;;;;;;;4978467;28;20027;-83
2022/12/02 11:48:54;;;;;;;22.90;7.15;;;;;;;;;;4978991;28;20030;-83
2022/12/02 11:51:40;;;;;;;22.65;10.25;;;;;;;;;;4976702;28;20019;-82
2022/12/02 11:54:12;;;;;;;24.17;9.60;;;;;;;;;;4978225;28;20045;-83
2022/12/02 11:56:38;;;;;;;21.08;10.10;;;;;;;;;;4978276;28;20102;-80
2022/12/02 11:59:24;;;;;;;17.17;7.30;;;;;;;;;;4977824;28;20074;-82
2022/12/02 12:01:49;;;;;;;20.88;8.57;;;;;;;;;;4978154;28;20030;-82
2022/12/02 12:04:23;;;;;;;16.27;7.30;;;;;;;;;;4976901;28;20030;-83
2022/12/02 12:06:53;;;;;;;;;;;;;;;;;;4977053;28;20030;-81
2022/12/02 12:09:18;;;;;;;13.68;6.85;;;;;;;;;;4978697;28;20299;-82
2022/12/02 12:12:09;;;;;;;21.83;9.65;;;;;;;;;;4977535;28;20023;-82
2022/12/02 12:14:54;;;;;;;12.13;6.25;;;;;;;;;;4977731;28;20026;-82
2022/12/02 12:17:28;;;;;;;;;;;;;;;;;;4978675;28;20041;-83
2022/12/02 12:19:53;;;;;;;16.15;8.00;;;;;;;;;;4977694;28;19916;-84
2022/12/02 12:22:28;;;;;;;27.73;10.73;;;;;;;;;;4978015;28;20114;-81
2022/12/02 12:24:53;;;;;;;24.48;9.73;;;;;;;;;;4977940;28;20054;-81
2022/12/02 12:27:34;;;;;;;23.00;9.85;;;;;;;;;;4977826;28;20027;-81
2022/12/02 12:30:03;;;;;;;22.13;8.82;;;;;;;;;;4978213;28;20109;-82
2022/12/02 12:32:29;;;;;;;18.05;8.60;;;;;;;;;;4977079;28;20027;-83
2022/12/02 12:34:57;;;;;;;20.08;9.15;;;;;;;;;;4978359;28;20049;-82
2022/12/02 12:37:22;;;;;;;24.42;10.80;;;;;;;;;;4977981;28;20105;-82
2022/12/02 12:39:47;;;;;;;20.00;8.82;;;;;;;;;;4977890;28;20061;-82
2022/12/02 12:42:13;;;;;;;17.85;8.40;;;;;;;;;;4978211;28;20062;-81
2022/12/02 12:44:38;;;;;;;25.17;10.00;;;;;;;;;;4977706;28;20019;-82
2022/12/02 12:47:05;;;;;;;28.15;10.95;;;;;;;;;;4976716;28;20035;-82
2022/12/02 12:49:32;;;;;;;24.67;9.52;;;;;;;;;;4978394;28;20031;-82
2022/12/02 12:51:58;;;;;;;14.32;6.20;;;;;;;;;;4978168;28;20543;-82
2022/12/02 12:54:30;;;;;;;20.02;8.25;;;;;;;;;;4982088;28;20030;-82
2022/12/02 12:56:56;;;;;;;27.35;11.70;;;;;;;;;;4981838;28;20027;-82
2022/12/02 12:59:24;;;;;;;17.15;7.78;;;;;;;;;;4981981;28;20037;-82
2022/12/02 13:01:49;;;;;;;19.08;8.43;;;;;;;;;;4981970;28;20085;-81
2022/12/02 13:04:14;;;;;;;27.80;12.60;;;;;;;;;;4981537;28;20023;-81
2022/12/02 13:06:40;;;;;;;29.65;11.85;;;;;;;;;;4981475;28;20022;-81
2022/12/02 13:09:05;;;;;;;27.63;11.40;;;;;;;;;;4981541;28;20077;-81
2022/12/02 13:11:30;;;;;;;24.13;10.77;;;;;;;;;;4981515;28;20030;-82
2022/12/02 13:13:55;;;;;;;20.83;8.95;;;;;;;;;;4981586;28;20044;-81
2022/12/02 13:16:27;;;;;;;30.83;13.10;;;;;;;;;;4981597;28;20022;-81
2022/12/02 13:18:52;;;;;;;14.30;6.53;;;;;;;;;;4980923;28;20106;-82
2022/12/02 13:21:19;;;;;;;28.33;12.32;;;;;;;;;;4981529;28;20440;-82
2022/12/02 13:23:45;;;;;;;27.83;12.15;;;;;;;;;;4981126;28;20027;-82
2022/12/02 13:26:12;;;;;;;29.13;11.40;;;;;;;;;;4979584;28;20399;-83
2022/12/02 13:28:43;;;;;;;24.95;9.52;;;;;;;;;;4980965;28;20026;-83
2022/12/02 13:31:12;;;;;;;26.88;11.45;;;;;;;;;;4981380;28;20026;-83
2022/12/02 13:33:37;;;;;;;21.73;8.93;;;;;;;;;;4981577;28;20431;-82
2022/12/02 13:36:38;;;;;;;24.85;11.25;;;;;;;;;;4980449;28;20023;-82
2022/12/02 13:39:03;;;;;;;25.83;10.65;;;;;;;;;;4946355;28;20066;-81
2022/12/02 13:41:28;;;;;;;22.20;8.63;;;;;;;;;;4980413;28;20476;-82
2022/12/02 13:43:54;;;;;;;25.58;6.35;;;;;;;;;;4980868;28;20023;-82
2022/12/02 13:46:22;;;;;;;15.20;6.97;;;;;;;;;;4981067;28;20026;-81
2022/12/02 13:48:47;;;;;;;25.27;9.95;;;;;;;;;;4980439;28;20038;-82
2022/12/02 13:51:13;;;;;;;11.38;6.28;;;;;;;;;;4979758;28;20154;-83
2022/12/02 13:53:38;;;;;;;11.57;6.00;;;;;;;;;;4978792;28;20503;-83
2022/12/02 13:56:22;;;;;;;23.15;8.27;;;;;;;;;;4978744;28;20054;-83
2022/12/02 13:58:47;;;;;;;11.03;5.80;;;;;;;;;;4980636;28;20451;-83
2022/12/02 14:01:13;;;;;;;20.15;8.80;;;;;;;;;;4979274;28;20024;-82
2022/12/02 14:03:39;;;;;;;20.75;8.32;;;;;;;;;;4978542;28;20031;-82
2022/12/02 14:06:04;;;;;;;18.88;8.85;;;;;;;;;;4980981;28;20535;-82
2022/12/02 14:08:29;;;;;;;20.38;8.05;;;;;;;;;;4979417;28;20038;-82
2022/12/02 14:10:55;;;;;;;16.10;8.02;;;;;;;;;;4980158;28;20102;-83
2022/12/02 14:13:20;;;;;;;15.57;7.10;;;;;;;;;;4979582;28;20392;-82
2022/12/02 14:15:45;;;;;;;16.23;7.25;;;;;;;;;;4979372;28;20082;-83
2022/12/02 14:18:12;;;;;;;20.08;8.48;;;;;;;;;;4978976;28;20448;-82
2022/12/02 14:20:37;;;;;;;16.67;7.30;;;;;;;;;;4980314;28;20031;-81
2022/12/02 14:23:03;;;;;;;18.60;8.25;;;;;;;;;;4980018;28;20397;-82
2022/12/02 14:25:28;;;;;;;17.85;8.15;;;;;;;;;;4979767;28;20147;-83
2022/12/02 14:27:54;;;;;;;16.90;7.75;;;;;;;;;;4979974;28;20027;-82
2022/12/02 14:30:20;;;;;;;26.75;11.25;;;;;;;;;;4979805;28;20027;-83
2022/12/02 14:32:46;;;;;;;17.55;6.55;;;;;;;;;;4979019;28;20026;-82